createdAt,value
2023-01-27T00:00:32.282Z,7.87
2023-01-27T00:02:58.730Z,10.23
2023-01-27T00:05:25.324Z,7.75
2023-01-27T00:07:52.158Z,13.13
2023-01-27T00:10:20.130Z,9.73
2023-01-27T00:13:06.625Z,10.90
2023-01-27T00:15:34.712Z,11.85
2023-01-27T00:18:01.587Z,13.07
2023-01-27T00:20:51.621Z,8.68
2023-01-27T00:23:41.682Z,15.25
2023-01-27T00:26:11.020Z,8.90
2023-01-27T00:28:38.973Z,10.48
2023-01-27T00:31:08.655Z,8.95
2023-01-27T00:33:35.150Z,10.90
2023-01-27T00:36:01.682Z,6.35
2023-01-27T00:38:33.325Z,6.80
2023-01-27T00:41:15.210Z,8.50
2023-01-27T00:43:42.006Z,9.98
2023-01-27T00:46:08.813Z,7.38
2023-01-27T00:48:35.665Z,8.80
2023-01-27T00:51:02.482Z,7.77
2023-01-27T00:53:29.042Z,11.85
2023-01-27T00:55:55.500Z,8.05
2023-01-27T00:58:22.464Z,8.60
2023-01-27T01:00:48.944Z,11.75
2023-01-27T01:03:15.655Z,9.93
2023-01-27T01:05:42.204Z,12.15
2023-01-27T01:08:08.718Z,16.15
2023-01-27T01:10:37.845Z,9.02
2023-01-27T01:13:04.665Z,11.82
2023-01-27T01:15:31.154Z,15.50
2023-01-27T01:17:57.686Z,11.38
2023-01-27T01:20:24.740Z,9.23
2023-01-27T01:22:51.187Z,12.82
2023-01-27T01:25:17.658Z,8.82
2023-01-27T01:27:45.753Z,8.63
2023-01-27T01:30:12.724Z,12.45
2023-01-27T01:32:39.393Z,8.38
2023-01-27T01:35:06.416Z,10.63
2023-01-27T01:37:33.043Z,14.90
2023-01-27T01:39:59.490Z,10.83
2023-01-27T01:42:25.973Z,9.30
2023-01-27T01:45:31.047Z,9.85
2023-01-27T01:48:23.815Z,11.13
2023-01-27T01:51:10.648Z,11.18
2023-01-27T01:53:44.008Z,9.63
2023-01-27T01:56:16.796Z,12.40
2023-01-27T01:58:45.499Z,11.73
2023-01-27T02:01:14.784Z,19.27
2023-01-27T02:03:44.872Z,12.40
2023-01-27T02:06:11.667Z,12.43
2023-01-27T02:08:46.216Z,10.02
2023-01-27T02:11:12.809Z,12.57
2023-01-27T02:13:40.257Z,9.88
2023-01-27T02:16:08.333Z,15.93
2023-01-27T02:18:35.175Z,11.23
2023-01-27T02:21:01.960Z,13.32
2023-01-27T02:23:31.394Z,10.23
2023-01-27T02:26:05.537Z,9.27
2023-01-27T02:28:32.249Z,11.45
2023-01-27T02:30:58.877Z,12.43
2023-01-27T02:33:25.644Z,9.90
2023-01-27T02:36:06.564Z,10.27
2023-01-27T02:38:36.049Z,12.95
2023-01-27T02:41:12.118Z,11.95
2023-01-27T02:43:38.589Z,10.80
2023-01-27T02:46:05.241Z,10.48
2023-01-27T02:48:31.816Z,12.25
2023-01-27T02:50:58.387Z,19.10
2023-01-27T02:53:24.894Z,11.80
2023-01-27T02:55:51.323Z,13.30
2023-01-27T02:58:17.799Z,14.05
2023-01-27T03:00:44.662Z,14.10
2023-01-27T03:03:11.357Z,12.10
2023-01-27T03:05:37.836Z,13.30
2023-01-27T03:08:04.340Z,12.77
2023-01-27T03:10:30.787Z,10.48
2023-01-27T03:12:57.337Z,14.05
2023-01-27T03:15:42.364Z,13.27
2023-01-27T03:18:13.837Z,14.63
2023-01-27T03:20:41.522Z,14.03
2023-01-27T03:23:08.134Z,16.25
2023-01-27T03:25:35.515Z,14.02
2023-01-27T03:28:02.286Z,14.48
2023-01-27T03:30:29.310Z,18.25
2023-01-27T03:32:58.315Z,13.87
2023-01-27T03:35:34.322Z,14.68
2023-01-27T03:38:22.129Z,15.82
2023-01-27T03:41:07.475Z,15.15
2023-01-27T03:43:52.298Z,16.42
2023-01-27T03:46:22.390Z,20.73
2023-01-27T03:48:56.509Z,16.65
2023-01-27T03:51:24.919Z,17.85
2023-01-27T03:53:51.656Z,16.98
2023-01-27T03:56:20.001Z,14.85
2023-01-27T03:58:48.646Z,17.23
2023-01-27T04:01:22.686Z,16.35
2023-01-27T04:04:09.109Z,14.10
2023-01-27T04:06:56.391Z,15.88
2023-01-27T04:09:32.521Z,14.18
2023-01-27T04:12:00.650Z,14.00
2023-01-27T04:14:37.711Z,13.70
2023-01-27T04:17:15.678Z,13.90
2023-01-27T04:19:42.103Z,13.63
2023-01-27T04:22:11.597Z,13.32
2023-01-27T04:24:38.549Z,13.47
2023-01-27T04:27:08.732Z,13.48
2023-01-27T04:29:40.429Z,13.45
2023-01-27T04:32:11.622Z,12.10
2023-01-27T04:34:38.724Z,12.18
2023-01-27T04:37:06.821Z,11.77
2023-01-27T04:39:33.758Z,12.32
2023-01-27T04:42:00.291Z,12.38
2023-01-27T04:44:27.102Z,12.80
2023-01-27T04:46:54.710Z,12.25
2023-01-27T04:49:21.361Z,12.23
2023-01-27T04:51:48.113Z,11.82
2023-01-27T04:54:14.679Z,11.95
2023-01-27T04:56:45.622Z,11.77
2023-01-27T04:59:15.419Z,11.98
2023-01-27T05:01:42.063Z,11.50
2023-01-27T05:04:08.546Z,11.07
2023-01-27T05:06:35.094Z,10.98
2023-01-27T05:09:02.546Z,10.75
2023-01-27T05:11:29.259Z,11.73
2023-01-27T05:13:55.716Z,11.17
2023-01-27T05:16:25.287Z,10.40
2023-01-27T05:18:52.943Z,10.43
2023-01-27T05:21:28.303Z,9.88
2023-01-27T05:23:54.905Z,9.55
2023-01-27T05:26:27.321Z,9.53
2023-01-27T05:28:56.881Z,9.20
2023-01-27T05:31:26.728Z,8.45
2023-01-27T05:33:55.422Z,8.82
2023-01-27T05:36:24.787Z,10.30
2023-01-27T05:38:52.077Z,10.63
2023-01-27T05:41:19.781Z,9.40
2023-01-27T05:43:48.007Z,9.80
2023-01-27T05:46:23.176Z,9.48
2023-01-27T05:48:52.670Z,9.43
2023-01-27T05:51:21.307Z,10.47
2023-01-27T05:53:47.847Z,9.48
2023-01-27T05:56:16.931Z,8.82
2023-01-27T05:58:44.391Z,9.60
2023-01-27T06:01:16.950Z,9.95
2023-01-27T06:03:44.659Z,9.60
2023-01-27T06:06:12.237Z,9.20
2023-01-27T06:08:39.493Z,9.70
2023-01-27T06:11:06.821Z,9.32
2023-01-27T06:13:35.859Z,8.52
2023-01-27T06:16:03.814Z,8.80
2023-01-27T06:18:30.418Z,10.30
2023-01-27T06:21:01.381Z,8.38
2023-01-27T06:23:28.354Z,8.43
2023-01-27T06:25:55.813Z,9.07
2023-01-27T06:28:30.167Z,9.63
2023-01-27T06:31:04.150Z,10.10
2023-01-27T06:33:30.699Z,7.57
2023-01-27T06:36:11.158Z,9.98
2023-01-27T06:38:37.871Z,9.20
2023-01-27T06:41:05.035Z,9.27
2023-01-27T06:43:31.750Z,8.88
2023-01-27T06:45:58.530Z,8.45
2023-01-27T06:48:26.423Z,8.85
2023-01-27T06:50:53.741Z,9.02
2023-01-27T06:53:20.409Z,9.60
2023-01-27T06:55:46.913Z,8.60
2023-01-27T06:58:14.996Z,10.15
2023-01-27T07:00:41.945Z,9.13
2023-01-27T07:03:11.263Z,8.77
2023-01-27T07:05:39.915Z,8.90
2023-01-27T07:08:06.453Z,9.35
2023-01-27T07:10:32.917Z,8.40
2023-01-27T07:13:08.047Z,8.75
2023-01-27T07:15:34.876Z,9.30
2023-01-27T07:18:01.698Z,8.43
2023-01-27T07:20:29.240Z,8.32
2023-01-27T07:23:13.981Z,8.32
2023-01-27T07:25:40.714Z,8.85
2023-01-27T07:28:07.232Z,8.63
2023-01-27T07:30:34.991Z,9.00
2023-01-27T07:33:12.555Z,8.52
2023-01-27T07:35:39.748Z,8.32
2023-01-27T07:38:06.929Z,8.63
2023-01-27T07:40:33.607Z,8.13
2023-01-27T07:43:01.058Z,8.30
2023-01-27T07:45:28.730Z,9.05
2023-01-27T07:48:00.775Z,9.50
2023-01-27T07:50:27.287Z,8.15
2023-01-27T07:52:53.856Z,6.82
2023-01-27T07:55:20.400Z,8.43
2023-01-27T07:57:46.819Z,8.05
2023-01-27T08:00:15.549Z,8.85
2023-01-27T08:02:42.128Z,8.50
2023-01-27T08:05:09.018Z,7.95
2023-01-27T08:07:35.452Z,8.10
2023-01-27T08:10:01.942Z,8.32
2023-01-27T08:12:28.416Z,8.27
2023-01-27T08:14:54.943Z,8.48
2023-01-27T08:17:21.407Z,9.10
2023-01-27T08:19:50.554Z,7.50
2023-01-27T08:22:21.121Z,7.82
2023-01-27T08:24:50.710Z,8.45
2023-01-27T08:27:17.740Z,9.27
2023-01-27T08:29:44.440Z,9.05
2023-01-27T08:32:12.419Z,8.40
2023-01-27T08:34:40.849Z,8.30
2023-01-27T08:37:07.459Z,8.75
2023-01-27T08:39:34.020Z,7.93
2023-01-27T08:42:00.588Z,8.75
2023-01-27T08:44:28.338Z,8.67
2023-01-27T08:46:55.365Z,7.97
2023-01-27T08:49:21.902Z,7.80
2023-01-27T08:51:48.334Z,7.80
2023-01-27T08:54:15.040Z,8.02
2023-01-27T08:56:41.720Z,8.17
2023-01-27T08:59:08.147Z,7.95
2023-01-27T09:01:34.719Z,6.85
2023-01-27T09:04:01.207Z,8.32
2023-01-27T09:06:27.660Z,7.40
2023-01-27T09:09:11.441Z,8.00
2023-01-27T09:11:41.068Z,8.18
2023-01-27T09:14:07.670Z,7.60
2023-01-27T09:16:34.236Z,7.57
2023-01-27T09:19:00.783Z,8.13
2023-01-27T09:21:27.424Z,8.27
2023-01-27T09:23:53.956Z,7.88
2023-01-27T09:26:20.438Z,8.45
2023-01-27T09:28:46.974Z,7.82
2023-01-27T09:31:13.601Z,8.23
2023-01-27T09:33:40.101Z,7.53
2023-01-27T09:36:16.642Z,7.18
2023-01-27T09:38:57.206Z,8.00
2023-01-27T09:41:29.555Z,7.72
2023-01-27T09:44:33.865Z,8.55
2023-01-27T09:47:09.042Z,8.07
2023-01-27T09:50:00.257Z,8.15
2023-01-27T09:52:59.514Z,7.15
2023-01-27T09:55:29.053Z,8.25
2023-01-27T09:58:13.945Z,7.32
2023-01-27T10:01:18.515Z,6.77
2023-01-27T10:03:58.372Z,6.63
2023-01-27T10:06:39.237Z,6.88
2023-01-27T10:09:18.452Z,7.40
2023-01-27T10:11:56.929Z,6.75
2023-01-27T10:14:42.429Z,7.37
2023-01-27T10:17:11.677Z,7.15
2023-01-27T10:19:51.943Z,6.68
2023-01-27T10:22:46.668Z,7.05
2023-01-27T10:25:48.395Z,7.25
2023-01-27T10:28:19.199Z,6.70
2023-01-27T10:31:02.825Z,9.23
2023-01-27T10:33:53.398Z,7.63
2023-01-27T10:36:42.024Z,6.70
2023-01-27T10:39:47.004Z,7.63
2023-01-27T10:42:20.048Z,7.70
2023-01-27T10:45:24.151Z,6.75
2023-01-27T10:48:15.222Z,7.40
2023-01-27T10:50:50.506Z,7.80
2023-01-27T10:53:40.090Z,7.43
2023-01-27T10:56:17.737Z,8.10
2023-01-27T10:59:05.929Z,9.63
2023-01-27T11:01:37.348Z,7.97
2023-01-27T11:04:27.026Z,7.18
2023-01-27T11:06:54.733Z,7.45
2023-01-27T11:09:24.381Z,7.77
2023-01-27T11:11:52.690Z,8.25
2023-01-27T11:14:32.345Z,7.53
2023-01-27T11:17:22.181Z,7.65
2023-01-27T11:20:22.384Z,7.90
2023-01-27T11:23:09.616Z,7.10
2023-01-27T11:26:02.589Z,6.88
2023-01-27T11:28:41.659Z,7.85
2023-01-27T11:31:22.410Z,8.43
2023-01-27T11:34:02.993Z,7.50
2023-01-27T11:36:30.005Z,8.13
2023-01-27T11:38:58.386Z,7.85
2023-01-27T11:41:25.790Z,9.45
2023-01-27T11:43:52.559Z,17.17
2023-01-27T11:46:23.896Z,30.27
2023-01-27T11:48:55.704Z,15.00
2023-01-27T11:51:24.264Z,9.82
2023-01-27T11:54:20.427Z,9.18
2023-01-27T11:56:49.295Z,9.45
2023-01-27T11:59:26.094Z,9.23
2023-01-27T12:02:07.516Z,8.00
2023-01-27T12:05:09.914Z,9.50
2023-01-27T12:07:49.651Z,9.20
2023-01-27T12:10:42.323Z,9.30
2023-01-27T12:13:19.829Z,9.07
2023-01-27T12:16:05.418Z,8.37
2023-01-27T12:18:33.820Z,8.02
2023-01-27T12:21:02.840Z,7.63
2023-01-27T12:23:49.808Z,8.18
2023-01-27T12:26:27.990Z,7.80
2023-01-27T12:28:55.111Z,8.83
2023-01-27T12:31:30.958Z,7.55
2023-01-27T12:34:08.344Z,8.48
2023-01-27T12:36:40.830Z,8.27
2023-01-27T12:39:30.417Z,8.77
2023-01-27T12:41:57.127Z,8.30
2023-01-27T12:44:23.969Z,7.30
2023-01-27T12:47:03.912Z,7.63
2023-01-27T12:49:37.813Z,7.55
2023-01-27T12:52:08.443Z,7.45
2023-01-27T12:54:36.029Z,6.40
2023-01-27T12:57:06.814Z,7.07
2023-01-27T12:59:34.296Z,6.85
2023-01-27T13:02:18.199Z,6.72
2023-01-27T13:04:53.094Z,7.00
2023-01-27T13:07:25.096Z,8.13
2023-01-27T13:10:03.544Z,7.93
2023-01-27T13:12:50.428Z,8.23
2023-01-27T13:15:19.593Z,8.73
2023-01-27T13:17:51.501Z,8.25
2023-01-27T13:20:24.943Z,9.03
2023-01-27T13:22:56.335Z,8.38
2023-01-27T13:25:28.080Z,8.32
2023-01-27T13:27:59.746Z,7.82
2023-01-27T13:30:52.257Z,8.50
2023-01-27T13:33:31.359Z,7.13
2023-01-27T13:36:01.418Z,7.05
2023-01-27T13:38:42.386Z,7.35
2023-01-27T13:41:18.331Z,7.85
2023-01-27T13:43:55.289Z,8.23
2023-01-27T13:46:30.468Z,7.07
2023-01-27T13:49:04.849Z,7.28
2023-01-27T13:51:33.407Z,6.68
2023-01-27T13:54:04.125Z,7.00
2023-01-27T13:57:05.496Z,7.95
2023-01-27T13:59:34.659Z,7.27
2023-01-27T14:02:38.888Z,7.53
2023-01-27T14:05:08.389Z,7.43
2023-01-27T14:07:37.461Z,6.65
2023-01-27T14:10:59.297Z,7.57
2023-01-27T14:13:36.691Z,7.10
2023-01-27T14:16:07.479Z,7.03
2023-01-27T14:18:44.775Z,6.55
2023-01-27T14:21:40.892Z,6.85
2023-01-27T14:24:50.795Z,6.85
2023-01-27T14:27:31.875Z,5.80
2023-01-27T14:30:08.255Z,6.85
2023-01-27T14:32:50.415Z,7.60
2023-01-27T14:35:45.322Z,7.38
2023-01-27T14:38:48.228Z,6.70
2023-01-27T14:41:24.799Z,7.20
2023-01-27T14:43:58.293Z,7.78
2023-01-27T14:46:57.812Z,7.00
2023-01-27T14:49:27.425Z,7.28
2023-01-27T14:52:11.642Z,7.75
2023-01-27T14:55:09.105Z,8.67
2023-01-27T14:58:12.038Z,8.25
2023-01-27T15:00:57.340Z,9.38
2023-01-27T15:03:45.843Z,8.90
2023-01-27T15:06:21.364Z,8.25
2023-01-27T15:09:12.193Z,8.83
2023-01-27T15:11:56.729Z,8.50
2023-01-27T15:14:39.156Z,8.25
2023-01-27T15:17:31.771Z,8.30
2023-01-27T15:20:47.857Z,8.35
2023-01-27T15:23:40.130Z,9.43
2023-01-27T15:26:09.416Z,8.35
2023-01-27T15:28:40.660Z,9.20
2023-01-27T15:31:16.917Z,9.20
2023-01-27T15:34:23.554Z,8.73
2023-01-27T15:37:24.761Z,9.03
2023-01-27T15:40:06.248Z,9.05
2023-01-27T15:42:52.446Z,9.30
2023-01-27T15:45:28.648Z,8.52
2023-01-27T15:48:17.834Z,9.52
2023-01-27T15:50:56.330Z,9.63
2023-01-27T15:53:31.255Z,9.93
2023-01-27T15:56:00.560Z,9.63
2023-01-27T15:58:41.034Z,8.90
2023-01-27T16:01:11.290Z,9.73
2023-01-27T16:03:44.900Z,10.37
2023-01-27T16:06:17.299Z,9.68
2023-01-27T16:08:47.122Z,9.98
2023-01-27T16:11:38.383Z,9.25
2023-01-27T16:14:17.199Z,10.45
2023-01-27T16:17:09.459Z,9.33
2023-01-27T16:19:44.663Z,10.05
2023-01-27T16:22:19.460Z,10.45
2023-01-27T16:25:12.733Z,10.90
2023-01-27T16:27:53.767Z,12.80
2023-01-27T16:30:25.117Z,12.23
2023-01-27T16:32:51.553Z,9.90
2023-01-27T16:35:21.353Z,11.48
2023-01-27T16:38:15.065Z,11.27
2023-01-27T16:40:49.564Z,10.23
2023-01-27T16:43:20.279Z,10.33
2023-01-27T16:45:51.076Z,12.32
2023-01-27T16:48:22.851Z,10.02
2023-01-27T16:50:52.068Z,16.38
2023-01-27T16:53:20.699Z,9.57
2023-01-27T16:56:17.055Z,10.83
2023-01-27T16:58:46.786Z,11.73
2023-01-27T17:01:22.696Z,9.70
2023-01-27T17:03:50.261Z,9.10
2023-01-27T17:06:17.637Z,9.38
2023-01-27T17:08:48.618Z,10.00
2023-01-27T17:11:25.185Z,9.75
2023-01-27T17:14:03.388Z,11.85
2023-01-27T17:16:35.338Z,11.02
2023-01-27T17:19:15.622Z,10.25
2023-01-27T17:21:49.364Z,11.00
2023-01-27T17:24:21.830Z,11.10
2023-01-27T17:26:55.875Z,11.50
2023-01-27T17:29:25.553Z,11.20
2023-01-27T17:31:52.436Z,12.45
2023-01-27T17:34:20.834Z,16.90
2023-01-27T17:37:06.453Z,13.57
2023-01-27T17:39:33.765Z,12.52
2023-01-27T17:42:01.574Z,11.32
2023-01-27T17:44:28.118Z,10.55
2023-01-27T17:46:54.751Z,10.47
2023-01-27T17:49:21.297Z,12.27
2023-01-27T17:51:53.595Z,11.27
2023-01-27T17:54:30.022Z,12.88
2023-01-27T17:57:21.197Z,13.40
2023-01-27T18:00:04.155Z,9.43
2023-01-27T18:02:36.502Z,12.23
2023-01-27T18:05:15.874Z,9.88
2023-01-27T18:07:42.469Z,9.80
2023-01-27T18:10:34.616Z,11.07
2023-01-27T18:13:12.627Z,10.50
2023-01-27T18:15:51.324Z,9.50
2023-01-27T18:18:32.813Z,10.00
2023-01-27T18:20:59.808Z,10.85
2023-01-27T18:23:32.217Z,12.40
2023-01-27T18:26:27.545Z,10.93
2023-01-27T18:29:01.608Z,10.05
2023-01-27T18:31:32.123Z,10.57
2023-01-27T18:34:04.552Z,10.25
2023-01-27T18:36:35.247Z,11.38
2023-01-27T18:39:04.502Z,9.90
2023-01-27T18:41:38.057Z,11.07
2023-01-27T18:44:04.717Z,11.48
2023-01-27T18:46:31.302Z,15.82
2023-01-27T18:48:59.700Z,30.33
2023-01-27T18:51:26.216Z,39.43
2023-01-27T18:53:53.112Z,18.35
2023-01-27T18:56:19.627Z,30.20
2023-01-27T18:58:46.125Z,20.80
2023-01-27T19:01:21.581Z,18.52
2023-01-27T19:03:49.287Z,16.00
2023-01-27T19:06:17.161Z,16.27
2023-01-27T19:08:44.177Z,17.13
2023-01-27T19:11:15.045Z,22.10
2023-01-27T19:13:43.243Z,38.85
2023-01-27T19:16:13.739Z,19.97
2023-01-27T19:18:42.079Z,12.80
2023-01-27T19:21:14.225Z,13.30
2023-01-27T19:23:44.419Z,12.40
2023-01-27T19:26:19.630Z,11.52
2023-01-27T19:28:55.892Z,10.13
2023-01-27T19:31:22.610Z,15.35
2023-01-27T19:33:49.279Z,14.80
2023-01-27T19:36:28.143Z,12.80
2023-01-27T19:39:01.200Z,13.07
2023-01-27T19:41:28.747Z,12.47
2023-01-27T19:43:55.334Z,13.55
2023-01-27T19:46:22.567Z,13.65
2023-01-27T19:48:52.236Z,15.25
2023-01-27T19:51:19.453Z,11.60
2023-01-27T19:53:46.430Z,10.40
2023-01-27T19:56:16.017Z,13.60
2023-01-27T19:58:45.735Z,9.80
2023-01-27T20:01:12.376Z,9.10
2023-01-27T20:03:39.021Z,10.88
2023-01-27T20:06:23.606Z,8.43
2023-01-27T20:08:55.456Z,10.45
2023-01-27T20:11:42.533Z,12.48
2023-01-27T20:14:18.936Z,11.55
2023-01-27T20:16:46.995Z,11.27
2023-01-27T20:19:17.553Z,12.53
2023-01-27T20:21:45.843Z,13.65
2023-01-27T20:24:19.799Z,10.85
2023-01-27T20:26:46.874Z,9.32
2023-01-27T20:29:14.490Z,10.27
2023-01-27T20:31:41.544Z,11.17
2023-01-27T20:34:08.074Z,10.02
2023-01-27T20:36:34.727Z,9.93
2023-01-27T20:39:01.231Z,12.77
2023-01-27T20:41:27.735Z,14.73
2023-01-27T20:43:56.308Z,10.70
2023-01-27T20:46:22.864Z,12.30
2023-01-27T20:48:49.380Z,13.65
2023-01-27T20:51:16.438Z,10.77
2023-01-27T20:53:47.707Z,13.50
2023-01-27T20:56:16.835Z,11.87
2023-01-27T20:58:43.500Z,11.57
2023-01-27T21:01:12.667Z,13.00
2023-01-27T21:03:40.254Z,11.40
2023-01-27T21:06:08.279Z,11.18
2023-01-27T21:08:34.979Z,10.97
2023-01-27T21:11:06.418Z,10.50
2023-01-27T21:13:33.523Z,10.88
2023-01-27T21:16:01.728Z,10.45
2023-01-27T21:18:29.065Z,13.82
2023-01-27T21:20:59.366Z,13.00
2023-01-27T21:23:27.993Z,12.13
2023-01-27T21:25:55.028Z,12.07
2023-01-27T21:28:22.502Z,12.80
2023-01-27T21:30:49.169Z,15.32
2023-01-27T21:33:17.013Z,14.33
2023-01-27T21:35:43.520Z,12.48
2023-01-27T21:38:10.155Z,12.00
2023-01-27T21:40:36.953Z,13.13
2023-01-27T21:43:22.007Z,13.93
2023-01-27T21:45:58.454Z,15.37
2023-01-27T21:48:25.421Z,14.85
2023-01-27T21:50:52.002Z,14.27
2023-01-27T21:53:19.680Z,13.20
2023-01-27T21:55:46.212Z,12.45
2023-01-27T21:58:12.705Z,14.20
2023-01-27T22:00:39.235Z,12.52
2023-01-27T22:03:05.796Z,13.20
2023-01-27T22:05:35.369Z,14.55
2023-01-27T22:08:02.048Z,13.50
2023-01-27T22:10:29.737Z,13.97
2023-01-27T22:13:01.438Z,12.45
2023-01-27T22:15:30.791Z,12.77
2023-01-27T22:17:58.627Z,15.85
2023-01-27T22:20:26.015Z,16.65
2023-01-27T22:22:52.580Z,60.70
2023-01-27T22:25:19.215Z,40.55
2023-01-27T22:27:46.256Z,22.80
2023-01-27T22:30:18.110Z,25.45
2023-01-27T22:32:45.844Z,21.92
2023-01-27T22:35:17.655Z,13.07
2023-01-27T22:37:44.559Z,24.77
2023-01-27T22:40:12.255Z,15.82
2023-01-27T22:42:40.116Z,26.80
2023-01-27T22:45:10.169Z,26.45
2023-01-27T22:47:36.716Z,18.30
2023-01-27T22:50:03.629Z,63.40
2023-01-27T22:52:30.210Z,178.68
2023-01-27T22:54:56.849Z,77.07
2023-01-27T22:57:24.913Z,53.13
2023-01-27T22:59:51.426Z,44.27
2023-01-27T23:02:17.964Z,93.00
2023-01-27T23:04:44.439Z,74.97
2023-01-27T23:07:10.917Z,63.83
2023-01-27T23:09:37.381Z,105.60
2023-01-27T23:12:04.080Z,80.33
2023-01-27T23:14:30.559Z,142.27
2023-01-27T23:16:58.513Z,129.23
2023-01-27T23:19:25.109Z,46.47
2023-01-27T23:21:51.706Z,34.85
2023-01-27T23:24:18.218Z,43.67
2023-01-27T23:26:44.789Z,21.48
2023-01-27T23:29:24.319Z,17.67
2023-01-27T23:31:51.638Z,17.20
2023-01-27T23:34:18.137Z,13.93
2023-01-27T23:36:44.647Z,12.87
2023-01-27T23:39:14.447Z,12.68
2023-01-27T23:41:40.953Z,11.82
2023-01-27T23:44:10.722Z,11.48
2023-01-27T23:46:37.222Z,10.98
2023-01-27T23:49:03.878Z,12.23
2023-01-27T23:51:30.611Z,11.93
2023-01-27T23:53:57.098Z,11.48
2023-01-27T23:56:23.565Z,11.77
2023-01-27T23:58:50.003Z,12.20
